Details From TJPS - Mercedita
To TNCM - St Maarten - Princess Juliana Intl
Flight Number -
Tags Generated
Created
Modified
Stats Distance 197 nm / 365 km
Max Altitude 0 ft / 0 m
Waypoints 2
Social Downloads 0
Likes 0
Share VATSIM

Download

Looking for another format? Having issues loading an existing format? Contact us
Advertisement - Login to hide

Notes

Generated

Route

TJPS TNCM

ID Type Via Altitude Latitude Longitude Leg Dist Tot Dist Heading (true) Name
O TJPS APT - 0 ft / 0 m 18.01124˚ -66.57247˚ - 0 nm - -
O TNCM APT - 0 ft / 0 m 18.03937˚ -63.11961˚ 197 nm 197 nm 89° / 90° -

Altitude Profile

Advertisement - Login to hide

Weather


0- 5 10 15 20 25 30 35+ Temperature / ° C

Clouds and Precipitation
Forecast for 2017-12-12 06:00 UTC. Updated 2 hours ago

Ground ~20,000 ft ~40,000 ft Winds

TJPS

Details ICAO TJPS (PSE)
Name Ponce/Mercedita
Region USA (Puerto Rico)
Timezone America/Puerto_Rico (UTC-4.0)
Stats Elevation 29 ft / 9 m (AMSL)
Location 18.008312° -66.563014°
Runways 1
Magnetic Variation 12.954° W

METAR

TJPS 120350Z 05005KT 10SM FEW030 21/21 A2995

Decode

TAF

TAF TJPS 112320Z 1200/1224 06005KT P6SM SCT030 FM120400 VRB04KT P6SM FEW150 FM121120 05003KT P6SM FEW250 FM121600 09009KT P6SM FEW150 AMD NOT SKED TIL 120300

Decode

Departure Runways

ID Width Length Bearing (true) Bearing (mag) Surface Threshold Offset Overrun Length
12 151 ft / 46 m 6,900 ft / 2,103 m 108.03° 120.98° Asphalt 787 ft / 240 m 200 ft / 61 m
30 151 ft / 46 m 6,900 ft / 2,103 m 288.03° 300.98° Asphalt 226 ft / 69 m 0 ft / 0 m

TNCM

Details ICAO TNCM (SXM)
Name St Maarten - Princess Juliana Intl
Region Caribbean Netherlands, Aruba, Curaçao, Sint Maarten
Timezone Unknown (UTC+0.0)
Stats Elevation 12 ft / 4 m (AMSL)
Location 18.040889° -63.108974°
Runways 1
Magnetic Variation 14.325° W

METAR

Not found

TAF

TAF TNCM 112320Z 1200/1224 06010KT P6SM FEW020 FM120030 VRB03KT P6SM FEW250 FM120600 08006KT P6SM VCSH FEW250 FM121800 16008KT P6SM VCSH SCT030

Decode

Destination Runways

ID Width Length Bearing (true) Bearing (mag) Surface Threshold Offset Overrun Length
10 148 ft / 45 m 7,464 ft / 2,275 m 81.43° 95.75° Asphalt 0 ft / 0 m 151 ft / 46 m
28 148 ft / 45 m 7,464 ft / 2,275 m 261.44° 275.76° Asphalt 397 ft / 121 m 0 ft / 0 m

Popular Alternatives